DAL867 KSLC-KBOI
Flight info
| Callsign | DAL867 |
|---|---|
| Flight time | N/A |
| Altitude | 32000 |
| Route | CGULL1 TWF BROPH SPUUD4 |
| Aircraft | A321/M-SDE3FGHIRWY/LB1 |
Departure
| Time | 2026-05-07 04:24 |
|---|---|
| Airport | Salt Lake City International Airport (KSLC) |
Arrival
| Time | N/A |
|---|---|
| Airport | Boise Air Terminal/Gowen Field (KBOI) |
| Time | Latitude | Longitude | Altitude | Speed | Heading |
|---|---|---|---|---|---|
| 2026-05-07 03:57 | 40.78651 | -111.98039 | 4230 ft | 0 kts | 174° |
| 2026-05-07 04:07 | 40.78661 | -111.98041 | 4230 ft | 2 kts | 167° |
| 2026-05-07 04:08 | 40.78676 | -111.98044 | 4230 ft | 2 kts | 176° |
| 2026-05-07 04:08 | 40.78686 | -111.98045 | 4230 ft | 2 kts | 172° |
| 2026-05-07 04:08 | 40.78700 | -111.98051 | 4230 ft | 2 kts | 149° |
| 2026-05-07 04:08 | 40.78712 | -111.98064 | 4230 ft | 2 kts | 131° |
| 2026-05-07 04:09 | 40.78721 | -111.98080 | 4229 ft | 2 kts | 112° |
| 2026-05-07 04:09 | 40.78725 | -111.98100 | 4229 ft | 2 kts | 94° |
| 2026-05-07 04:09 | 40.78725 | -111.98112 | 4229 ft | 1 kts | 84° |
| 2026-05-07 04:09 | 40.78724 | -111.98118 | 4228 ft | 0 kts | 84° |
| 2026-05-07 04:15 | 40.78725 | -111.98114 | 4228 ft | 0 kts | 78° |
| 2026-05-07 04:15 | 40.78728 | -111.98103 | 4228 ft | 2 kts | 66° |
| 2026-05-07 04:15 | 40.78739 | -111.98080 | 4228 ft | 3 kts | 50° |
| 2026-05-07 04:16 | 40.78770 | -111.98038 | 4228 ft | 8 kts | 45° |
| 2026-05-07 04:16 | 40.78794 | -111.97945 | 4227 ft | 13 kts | 96° |
| 2026-05-07 04:16 | 40.78785 | -111.97823 | 4227 ft | 8 kts | 94° |
| 2026-05-07 04:16 | 40.78763 | -111.97732 | 4227 ft | 9 kts | 97° |
| 2026-05-07 04:17 | 40.78821 | -111.97689 | 4228 ft | 12 kts | 5° |
| 2026-05-07 04:17 | 40.78919 | -111.97696 | 4228 ft | 15 kts | 353° |
| 2026-05-07 04:17 | 40.79038 | -111.97716 | 4227 ft | 18 kts | 353° |
| 2026-05-07 04:17 | 40.79178 | -111.97734 | 4226 ft | 20 kts | 356° |
| 2026-05-07 04:18 | 40.79321 | -111.97746 | 4226 ft | 20 kts | 357° |
| 2026-05-07 04:18 | 40.79456 | -111.97758 | 4227 ft | 18 kts | 355° |
| 2026-05-07 04:18 | 40.79584 | -111.97776 | 4227 ft | 18 kts | 353° |
| 2026-05-07 04:18 | 40.79710 | -111.97793 | 4227 ft | 17 kts | 355° |
| 2026-05-07 04:19 | 40.79833 | -111.97807 | 4228 ft | 17 kts | 355° |
| 2026-05-07 04:19 | 40.79947 | -111.97819 | 4230 ft | 15 kts | 355° |
| 2026-05-07 04:19 | 40.80053 | -111.97830 | 4231 ft | 14 kts | 354° |
| 2026-05-07 04:19 | 40.80150 | -111.97844 | 4233 ft | 13 kts | 354° |
| 2026-05-07 04:20 | 40.80250 | -111.97848 | 4233 ft | 15 kts | 7° |
| 2026-05-07 04:20 | 40.80358 | -111.97820 | 4233 ft | 16 kts | 7° |
| 2026-05-07 04:20 | 40.80482 | -111.97825 | 4231 ft | 19 kts | 352° |
| 2026-05-07 04:21 | 40.80714 | -111.97857 | 4230 ft | 6 kts | 6° |
| 2026-05-07 04:21 | 40.80721 | -111.97855 | 4230 ft | 0 kts | 17° |
| 2026-05-07 04:21 | 40.80727 | -111.97852 | 4230 ft | 1 kts | 26° |
| 2026-05-07 04:22 | 40.80738 | -111.97837 | 4230 ft | 3 kts | 53° |
| 2026-05-07 04:22 | 40.80744 | -111.97802 | 4230 ft | 4 kts | 95° |
| 2026-05-07 04:22 | 40.80731 | -111.97746 | 4230 ft | 7 kts | 122° |
| 2026-05-07 04:22 | 40.80676 | -111.97692 | 4231 ft | 11 kts | 163° |
| 2026-05-07 04:23 | 40.80580 | -111.97677 | 4232 ft | 21 kts | 175° |
| 2026-05-07 04:23 | 40.80195 | -111.97631 | 4234 ft | 88 kts | 175° |
| 2026-05-07 04:23 | 40.79355 | -111.97535 | 4228 ft | 147 kts | 174° |
| 2026-05-07 04:23 | 40.78159 | -111.97408 | 4359 ft | 183 kts | 173° |
| 2026-05-07 04:24 | 40.76895 | -111.97468 | 4997 ft | 181 kts | 193° |
| 2026-05-07 04:24 | 40.75779 | -111.98212 | 5676 ft | 182 kts | 219° |
| 2026-05-07 04:24 | 40.75074 | -111.99590 | 6265 ft | 184 kts | 251° |
| 2026-05-07 04:24 | 40.75019 | -112.01302 | 6528 ft | 196 kts | 288° |
| 2026-05-07 04:25 | 40.75487 | -112.03053 | 6798 ft | 209 kts | 290° |
| 2026-05-07 04:25 | 40.76012 | -112.04902 | 7086 ft | 222 kts | 290° |
| 2026-05-07 04:25 | 40.76576 | -112.06875 | 7366 ft | 235 kts | 291° |
| 2026-05-07 04:25 | 40.77185 | -112.08992 | 7572 ft | 254 kts | 291° |
| 2026-05-07 04:26 | 40.77829 | -112.11214 | 7882 ft | 268 kts | 291° |
| 2026-05-07 04:26 | 40.78518 | -112.13583 | 8203 ft | 282 kts | 291° |
| 2026-05-07 04:26 | 40.79490 | -112.15859 | 8700 ft | 289 kts | 313° |
| 2026-05-07 04:26 | 40.81065 | -112.17550 | 9334 ft | 290 kts | 325° |
| 2026-05-07 04:27 | 40.82738 | -112.19024 | 9858 ft | 293 kts | 326° |
| 2026-05-07 04:27 | 40.84462 | -112.20554 | 10338 ft | 298 kts | 325° |
| 2026-05-07 04:27 | 40.86205 | -112.22160 | 10583 ft | 311 kts | 324° |
| 2026-05-07 04:27 | 40.88018 | -112.23887 | 10824 ft | 322 kts | 323° |
| 2026-05-07 04:28 | 40.89849 | -112.25666 | 11135 ft | 332 kts | 323° |
| 2026-05-07 04:28 | 40.91711 | -112.27487 | 11704 ft | 331 kts | 323° |
| 2026-05-07 04:28 | 40.93576 | -112.29331 | 12295 ft | 330 kts | 323° |
| 2026-05-07 04:28 | 40.95412 | -112.31153 | 12845 ft | 330 kts | 323° |
| 2026-05-07 04:29 | 40.97255 | -112.32982 | 13351 ft | 332 kts | 323° |
| 2026-05-07 04:29 | 40.99153 | -112.34856 | 13778 ft | 336 kts | 323° |
| 2026-05-07 04:29 | 41.00960 | -112.36639 | 14248 ft | 336 kts | 324° |
| 2026-05-07 04:29 | 41.02855 | -112.38510 | 14729 ft | 336 kts | 324° |
| 2026-05-07 04:30 | 41.04723 | -112.40359 | 15165 ft | 338 kts | 324° |
| 2026-05-07 04:30 | 41.06619 | -112.42216 | 15615 ft | 340 kts | 326° |
| 2026-05-07 04:30 | 41.08619 | -112.43962 | 16069 ft | 342 kts | 328° |
| 2026-05-07 04:30 | 41.10648 | -112.45659 | 16499 ft | 344 kts | 329° |
| 2026-05-07 04:31 | 41.12679 | -112.47346 | 16943 ft | 347 kts | 329° |
| 2026-05-07 04:31 | 41.14753 | -112.49074 | 17391 ft | 348 kts | 329° |
| 2026-05-07 04:31 | 41.16788 | -112.50828 | 17814 ft | 350 kts | 327° |
| 2026-05-07 04:31 | 41.18748 | -112.52721 | 18245 ft | 352 kts | 324° |
| 2026-05-07 04:32 | 41.20725 | -112.54727 | 18672 ft | 353 kts | 324° |
| 2026-05-07 04:32 | 41.22682 | -112.56728 | 19071 ft | 355 kts | 324° |
| 2026-05-07 04:32 | 41.24650 | -112.58733 | 19474 ft | 357 kts | 324° |
| 2026-05-07 04:32 | 41.26576 | -112.60782 | 19855 ft | 359 kts | 322° |
| 2026-05-07 04:33 | 41.28460 | -112.63044 | 20229 ft | 362 kts | 319° |
| 2026-05-07 04:33 | 41.30253 | -112.65476 | 20457 ft | 369 kts | 315° |
| 2026-05-07 04:33 | 41.31946 | -112.67945 | 20737 ft | 373 kts | 314° |
| 2026-05-07 04:33 | 41.33696 | -112.70532 | 21098 ft | 375 kts | 314° |
| 2026-05-07 04:34 | 41.35311 | -112.72919 | 21428 ft | 377 kts | 314° |
| 2026-05-07 04:34 | 41.37085 | -112.75530 | 21783 ft | 379 kts | 314° |
| 2026-05-07 04:34 | 41.38863 | -112.78141 | 22132 ft | 381 kts | 314° |
| 2026-05-07 04:34 | 41.40639 | -112.80756 | 22475 ft | 383 kts | 313° |
| 2026-05-07 04:35 | 41.42424 | -112.83461 | 22820 ft | 384 kts | 313° |
| 2026-05-07 04:35 | 41.44190 | -112.86162 | 23150 ft | 386 kts | 313° |
| 2026-05-07 04:35 | 41.45962 | -112.88873 | 23480 ft | 388 kts | 313° |
| 2026-05-07 04:35 | 41.47728 | -112.91576 | 23804 ft | 390 kts | 313° |
| 2026-05-07 04:36 | 41.49514 | -112.94313 | 24127 ft | 391 kts | 313° |
| 2026-05-07 04:36 | 41.51265 | -112.96998 | 24437 ft | 393 kts | 313° |
| 2026-05-07 04:36 | 41.53061 | -112.99754 | 24761 ft | 395 kts | 313° |
| 2026-05-07 04:36 | 41.54809 | -113.02439 | 25074 ft | 396 kts | 313° |
| 2026-05-07 04:37 | 41.56618 | -113.05222 | 25393 ft | 397 kts | 313° |
| 2026-05-07 04:37 | 41.58434 | -113.08016 | 25707 ft | 399 kts | 313° |
| 2026-05-07 04:37 | 41.60271 | -113.10846 | 26016 ft | 400 kts | 313° |
| 2026-05-07 04:37 | 41.62097 | -113.13660 | 26317 ft | 402 kts | 313° |
| 2026-05-07 04:38 | 41.63925 | -113.16482 | 26611 ft | 403 kts | 313° |
| 2026-05-07 04:38 | 41.65678 | -113.19190 | 26890 ft | 404 kts | 313° |
| 2026-05-07 04:38 | 41.67554 | -113.21997 | 31870 ft | 406 kts | 314° |
| 2026-05-07 04:38 | 41.69424 | -113.24875 | 32008 ft | 410 kts | 313° |
| 2026-05-07 04:39 | 41.71215 | -113.27675 | 32151 ft | 413 kts | 313° |
| 2026-05-07 04:39 | 41.73086 | -113.30601 | 32220 ft | 418 kts | 313° |
| 2026-05-07 04:39 | 41.74993 | -113.33579 | 32478 ft | 419 kts | 313° |
| 2026-05-07 04:39 | 41.76895 | -113.36550 | 32660 ft | 416 kts | 313° |
| 2026-05-07 04:40 | 41.80636 | -113.42384 | 32892 ft | 408 kts | 314° |
| 2026-05-07 04:40 | 41.82500 | -113.45290 | 32515 ft | 403 kts | 314° |
| 2026-05-07 04:40 | 41.84320 | -113.48126 | 32244 ft | 403 kts | 314° |
| 2026-05-07 04:41 | 41.86164 | -113.50999 | 32106 ft | 404 kts | 314° |
| 2026-05-07 04:41 | 41.88024 | -113.53902 | 32040 ft | 405 kts | 314° |
| 2026-05-07 04:41 | 41.91730 | -113.59689 | 32089 ft | 406 kts | 314° |
| 2026-05-07 04:42 | 41.95443 | -113.65527 | 32100 ft | 406 kts | 313° |
| 2026-05-07 04:42 | 41.99106 | -113.71322 | 32185 ft | 406 kts | 313° |
| 2026-05-07 04:43 | 42.02815 | -113.77185 | 32205 ft | 406 kts | 313° |
| 2026-05-07 04:43 | 42.06506 | -113.83012 | 32178 ft | 406 kts | 313° |
| 2026-05-07 04:44 | 42.10184 | -113.88824 | 32175 ft | 406 kts | 313° |
| 2026-05-07 04:44 | 42.13879 | -113.94639 | 32173 ft | 406 kts | 313° |
| 2026-05-07 04:45 | 42.17588 | -114.00505 | 32176 ft | 406 kts | 313° |
| 2026-05-07 04:45 | 42.21200 | -114.06203 | 32186 ft | 406 kts | 313° |
| 2026-05-07 04:46 | 42.47142 | -114.47590 | 32193 ft | 406 kts | 313° |
| 2026-05-07 04:46 | 42.50841 | -114.53477 | 32106 ft | 405 kts | 313° |
| 2026-05-07 04:47 | 42.54511 | -114.59289 | 32084 ft | 404 kts | 313° |
| 2026-05-07 04:47 | 42.58176 | -114.65131 | 32049 ft | 404 kts | 312° |
| 2026-05-07 04:48 | 42.61807 | -114.70972 | 32002 ft | 404 kts | 312° |
| 2026-05-07 04:48 | 42.63633 | -114.73911 | 31858 ft | 406 kts | 312° |
| 2026-05-07 04:48 | 42.65487 | -114.76894 | 31186 ft | 410 kts | 312° |
| 2026-05-07 04:49 | 42.67318 | -114.79839 | 30525 ft | 412 kts | 312° |
| 2026-05-07 04:49 | 42.69181 | -114.82837 | 29851 ft | 413 kts | 312° |
| 2026-05-07 04:49 | 42.71032 | -114.85814 | 29067 ft | 412 kts | 312° |
| 2026-05-07 04:49 | 42.72942 | -114.88724 | 28328 ft | 410 kts | 314° |
| 2026-05-07 04:50 | 42.74898 | -114.91550 | 27634 ft | 407 kts | 315° |
| 2026-05-07 04:50 | 42.76823 | -114.94311 | 27161 ft | 396 kts | 314° |
| 2026-05-07 04:50 | 42.78699 | -114.97002 | 26707 ft | 391 kts | 314° |
| 2026-05-07 04:50 | 42.80577 | -114.99697 | 26237 ft | 389 kts | 314° |
| 2026-05-07 04:51 | 42.82458 | -115.02399 | 25758 ft | 388 kts | 314° |
| 2026-05-07 04:51 | 42.84295 | -115.05041 | 25308 ft | 386 kts | 314° |
| 2026-05-07 04:51 | 42.86152 | -115.07715 | 24876 ft | 383 kts | 314° |
| 2026-05-07 04:51 | 42.87973 | -115.10341 | 24414 ft | 380 kts | 314° |
| 2026-05-07 04:52 | 42.89793 | -115.12967 | 23945 ft | 377 kts | 314° |
| 2026-05-07 04:52 | 42.91599 | -115.15576 | 23477 ft | 374 kts | 314° |
| 2026-05-07 04:52 | 42.93371 | -115.18140 | 23013 ft | 371 kts | 314° |
| 2026-05-07 04:52 | 42.95152 | -115.20724 | 22548 ft | 368 kts | 314° |
| 2026-05-07 04:53 | 42.96892 | -115.23251 | 22096 ft | 366 kts | 313° |
| 2026-05-07 04:53 | 42.98637 | -115.25787 | 21642 ft | 363 kts | 313° |
| 2026-05-07 04:53 | 43.00364 | -115.28298 | 21198 ft | 360 kts | 313° |
| 2026-05-07 04:53 | 43.02081 | -115.30800 | 20756 ft | 356 kts | 314° |
| 2026-05-07 04:54 | 43.03772 | -115.33257 | 20330 ft | 353 kts | 314° |
| 2026-05-07 04:54 | 43.05466 | -115.35722 | 19903 ft | 351 kts | 314° |
| 2026-05-07 04:54 | 43.07120 | -115.38133 | 19491 ft | 348 kts | 313° |
| 2026-05-07 04:54 | 43.08780 | -115.40558 | 19079 ft | 346 kts | 313° |
| 2026-05-07 04:55 | 43.10422 | -115.42960 | 18674 ft | 343 kts | 313° |
| 2026-05-07 04:55 | 43.12075 | -115.45361 | 18264 ft | 341 kts | 314° |
| 2026-05-07 04:55 | 43.13700 | -115.47710 | 17865 ft | 337 kts | 313° |
| 2026-05-07 04:55 | 43.15320 | -115.50068 | 17447 ft | 335 kts | 313° |
| 2026-05-07 04:56 | 43.16902 | -115.52397 | 17031 ft | 333 kts | 313° |
| 2026-05-07 04:56 | 43.18472 | -115.54707 | 16616 ft | 330 kts | 313° |
| 2026-05-07 04:56 | 43.20035 | -115.57003 | 16199 ft | 327 kts | 313° |
| 2026-05-07 04:56 | 43.21594 | -115.59292 | 15781 ft | 325 kts | 313° |
| 2026-05-07 04:57 | 43.23126 | -115.61542 | 15368 ft | 322 kts | 313° |
| 2026-05-07 04:57 | 43.24644 | -115.63770 | 14955 ft | 320 kts | 313° |
| 2026-05-07 04:57 | 43.26156 | -115.66084 | 14533 ft | 318 kts | 308° |
| 2026-05-07 04:57 | 43.27465 | -115.68502 | 14111 ft | 314 kts | 303° |
| 2026-05-07 04:58 | 43.28552 | -115.70969 | 13705 ft | 312 kts | 299° |
| 2026-05-07 04:58 | 43.29561 | -115.73591 | 13291 ft | 309 kts | 297° |
| 2026-05-07 04:58 | 43.30549 | -115.76234 | 12873 ft | 306 kts | 297° |
| 2026-05-07 04:58 | 43.31521 | -115.78828 | 12464 ft | 304 kts | 297° |
| 2026-05-07 04:59 | 43.32477 | -115.81394 | 12065 ft | 301 kts | 297° |
| 2026-05-07 04:59 | 43.33438 | -115.83975 | 11664 ft | 299 kts | 297° |
| 2026-05-07 04:59 | 43.34381 | -115.86511 | 11269 ft | 296 kts | 296° |
| 2026-05-07 04:59 | 43.35309 | -115.89018 | 10882 ft | 294 kts | 297° |
| 2026-05-07 05:00 | 43.36245 | -115.91519 | 10499 ft | 292 kts | 297° |
| 2026-05-07 05:00 | 43.37161 | -115.93968 | 10320 ft | 279 kts | 297° |
| 2026-05-07 05:00 | 43.38028 | -115.96286 | 10245 ft | 263 kts | 297° |
| 2026-05-07 05:00 | 43.38844 | -115.98480 | 10173 ft | 254 kts | 296° |
| 2026-05-07 05:01 | 43.39650 | -116.00662 | 10099 ft | 252 kts | 296° |
| 2026-05-07 05:01 | 43.40444 | -116.02811 | 9857 ft | 255 kts | 296° |
| 2026-05-07 05:01 | 43.41259 | -116.05023 | 9506 ft | 254 kts | 296° |
| 2026-05-07 05:01 | 43.42053 | -116.07188 | 9167 ft | 254 kts | 296° |
| 2026-05-07 05:02 | 43.42858 | -116.09377 | 8825 ft | 255 kts | 296° |
| 2026-05-07 05:02 | 43.43664 | -116.11563 | 8500 ft | 256 kts | 296° |
| 2026-05-07 05:02 | 43.44470 | -116.13749 | 8159 ft | 259 kts | 296° |
| 2026-05-07 05:02 | 43.45294 | -116.15984 | 7816 ft | 266 kts | 296° |
| 2026-05-07 05:03 | 43.46153 | -116.18320 | 7465 ft | 272 kts | 296° |
| 2026-05-07 05:03 | 43.46994 | -116.20654 | 7204 ft | 267 kts | 294° |
| 2026-05-07 05:03 | 43.47763 | -116.22916 | 7157 ft | 252 kts | 294° |
| 2026-05-07 05:03 | 43.48490 | -116.25072 | 7109 ft | 246 kts | 294° |
| 2026-05-07 05:04 | 43.49213 | -116.27216 | 6998 ft | 246 kts | 294° |
| 2026-05-07 05:04 | 43.49924 | -116.29374 | 6819 ft | 244 kts | 293° |
| 2026-05-07 05:04 | 43.50604 | -116.31508 | 6498 ft | 244 kts | 292° |
| 2026-05-07 05:04 | 43.51284 | -116.33655 | 6134 ft | 244 kts | 292° |
| 2026-05-07 05:05 | 43.51973 | -116.35834 | 5803 ft | 243 kts | 292° |
| 2026-05-07 05:05 | 43.52649 | -116.37966 | 5495 ft | 242 kts | 292° |
| 2026-05-07 05:05 | 43.53313 | -116.40067 | 5214 ft | 239 kts | 293° |
| 2026-05-07 05:05 | 43.53981 | -116.42176 | 5026 ft | 234 kts | 293° |
| 2026-05-07 05:06 | 43.54628 | -116.44226 | 5015 ft | 233 kts | 293° |
| 2026-05-07 05:06 | 43.55276 | -116.46284 | 5003 ft | 231 kts | 293° |
| 2026-05-07 05:06 | 43.55928 | -116.48359 | 4994 ft | 231 kts | 293° |
| 2026-05-07 05:06 | 43.56579 | -116.50431 | 4992 ft | 232 kts | 293° |
| 2026-05-07 05:07 | 43.57235 | -116.52481 | 4990 ft | 233 kts | 298° |
| 2026-05-07 05:07 | 43.58298 | -116.54120 | 4969 ft | 232 kts | 330° |
| 2026-05-07 05:07 | 43.59862 | -116.54699 | 4979 ft | 232 kts | 5° |
| 2026-05-07 05:07 | 43.61391 | -116.54109 | 5061 ft | 219 kts | 31° |
| 2026-05-07 05:08 | 43.62127 | -116.53190 | 5018 ft | 206 kts | 56° |